Ship Status Report: callsign MVGF4

sailwx.info

Track history (hours):
 
Tides and Currents Weather Stations Pressure Air Temp Water Temp Dewpoint Dewpoint Depression Visibility Wind Speed Wind Dir Waves Ship Positions

Callsign MVGF4 (name unknown)

Last reported at 2018-May-20 09:00 UTC. Time now 2018-May-20 10:22 UTC.
Position N 58°18' W 001°42'.

Wind from 160

Air temperature 10.5 ° C
Visibility: greater than 5.4 NM

Date/timePositionNaut miles runAvg speedWind from/ knotsBaromVisibWave heightAir tempDewpointWater temp
2018-May-20 09:00N 58°18' W 001°42'0 0.0 160 5.4 10.5
2018-May-20 08:00N 58°18' W 001°42'0 0.0 190 5.4 10.4
2018-May-20 07:00N 58°18' W 001°42'0 0.0 190 5.4 10.4
2018-May-20 06:00N 58°18' W 001°42'0 0.0 170 10.8 10.6
2018-May-20 05:00N 58°18' W 001°42'0 0.0 180 10.8 10.4
2018-May-20 04:00N 58°18' W 001°42'0 0.0 180 10.8 10.7
2018-May-20 03:00N 58°18' W 001°42'0 0.0 180 10.8 10.8
2018-May-20 02:00N 58°18' W 001°42'0 0.0 180 10.8 11.0
2018-May-20 01:00N 58°18' W 001°42'0 0.0 180 10.8 10.8
2018-May-20 00:00N 58°18' W 001°42'0 0.0 180 5.4 10.3
2018-May-19 23:00N 58°18' W 001°42'0 0.0 180 5.4 10.0
2018-May-19 22:00N 58°18' W 001°42'0 0.0 170 5.4 9.9
2018-May-19 21:00N 58°18' W 001°42'0 0.0 170 5.4 10.0
2018-May-19 20:00N 58°18' W 001°42'0 0.0 170 5.4 10.2
2018-May-19 19:00N 58°18' W 001°42'0 0.0 160 5.4 10.4
2018-May-19 18:00N 58°18' W 001°42'0 0.0 170 5.4 10.6
2018-May-19 17:00N 58°18' W 001°42'0 0.0 160 5.4 10.8
2018-May-19 16:00N 58°18' W 001°42'0 0.0 150 5.4 10.6
2018-May-19 15:00N 58°18' W 001°42'0 0.0 150 5.4 10.8
2018-May-19 14:00N 58°18' W 001°42'0 0.0 150 5.4 11.1
2018-May-19 13:00N 58°18' W 001°42'0 0.0 150 10.8 11.4
2018-May-19 12:00N 58°18' W 001°42'0 0.0 150 10.8 11.0
2018-May-19 11:00N 58°18' W 001°42'0 0.0 160 10.8 10.7
2018-May-19 10:00N 58°18' W 001°42'0 0.0 150 10.8 10.3
2018-May-19 09:00N 58°18' W 001°42'0 0.0 170 10.8 12.5
2018-May-19 08:00N 58°18' W 001°42'0 0.0
2018-May-19 07:00N 58°18' W 001°42'0 0.0
2018-May-19 06:00N 58°18' W 001°42'0 0.0 170 10.8 10.4
2018-May-19 05:00N 58°18' W 001°42'0 0.0 170 10.8 9.8
2018-May-19 04:00N 58°18' W 001°42'0 0.0 170 10.8 9.3
2018-May-19 03:00N 58°18' W 001°42'0 0.0 180 10.8 9.2
2018-May-19 02:00N 58°18' W 001°42'0 0.0 180 10.8 9.3
2018-May-19 01:00N 58°18' W 001°42'0 0.0 180 10.8 9.5
2018-May-19 00:00N 58°18' W 001°42'0 0.0 190 10.8 9.8
2018-May-18 23:00N 58°18' W 001°42'0 0.0 180 10.8 9.9
2018-May-18 22:00N 58°18' W 001°42'0 0.0 180 10.8 9.9
2018-May-18 21:00N 58°18' W 001°42'0 0.0 170 10.8 10.3
2018-May-18 20:00N 58°18' W 001°42'0 0.0 170 10.8 10.5
2018-May-18 19:00N 58°18' W 001°42'0 0.0 170 10.8 10.7
2018-May-18 18:00N 58°18' W 001°42'0 0.0 160 10.8 11.4
2018-May-18 17:00N 58°18' W 001°42'0 0.0 160 10.8 11.6
2018-May-18 16:00N 58°18' W 001°42'0 0.0 170 10.8 11.7
2018-May-18 15:00N 58°18' W 001°42'0 0.0 170 10.8 11.7
2018-May-18 14:00N 58°18' W 001°42'0 0.0 170 10.8 11.8
2018-May-18 13:00N 58°18' W 001°42'0 0.0 160 10.8 12.7
2018-May-18 12:00N 58°18' W 001°42'0 0.0 180 10.8 12.3
2018-May-18 11:00N 58°18' W 001°42'0 0.0 170 10.8 11.2
2018-May-18 10:00N 58°18' W 001°42'0 0.0 170 10.8 11.5
2018-May-18 09:00N 58°18' W 001°42'0 0.0 170 10.8 11.1
2018-May-18 08:00N 58°18' W 001°42'0 0.0 170 10.8 11.0
2018-May-18 07:00N 58°18' W 001°42'0 0.0 160 10.8 10.6
2018-May-18 06:00N 58°18' W 001°42'0 0.0 160 10.8 9.4
2018-May-18 05:00N 58°18' W 001°42'0 0.0 150 10.8 8.8
2018-May-18 04:00N 58°18' W 001°42'0 0.0 150 10.8 8.2
2018-May-18 03:00N 58°18' W 001°42'0 0.0 190 10.8 8.1
2018-May-18 02:00N 58°18' W 001°42'0 0.0 180 5.4 8.3
2018-May-18 01:00N 58°18' W 001°42'0 0.0 190 5.4 8.6
2018-May-18 00:00N 58°18' W 001°42'0 0.0 170 5.4 8.7
2018-May-17 23:00N 58°18' W 001°42'0 0.0 160 5.4 8.6
2018-May-17 22:00N 58°18' W 001°42'0 0.0 100 10.8 8.7
2018-May-17 21:00N 58°18' W 001°42'0 0.0 110 10.8 9.1
2018-May-17 20:00N 58°18' W 001°42'0 0.0 080 5.4 9.8
2018-May-17 19:00N 58°18' W 001°42'0 0.0 030 5.4 10.3
2018-May-17 18:00N 58°18' W 001°42'0 0.0 020 5.4 10.3
2018-May-17 17:00N 58°18' W 001°42'0 0.0 010 5.4 10.7
2018-May-17 16:00N 58°18' W 001°42'0 0.0 360 5.4 10.7
2018-May-17 15:00N 58°18' W 001°42'0 0.0 330 5.4 9.8
2018-May-17 14:00N 58°18' W 001°42'0 0.0 320 5.4 9.5
2018-May-17 13:00N 58°18' W 001°42'0 0.0 320 10.8 9.4
2018-May-17 12:00N 58°18' W 001°42'0 0.0 330 5.4 9.2
2018-May-17 11:00N 58°18' W 001°42'0 0.0 320 5.4 9.2
2018-May-17 10:00N 58°18' W 001°42'0 0.0 300 5.4 8.9
2018-May-17 09:00N 58°18' W 001°42'0 0.0 310 5.4 8.6
2018-May-17 08:00N 58°18' W 001°42'0 0.0 300 5.4 8.3
2018-May-17 07:00N 58°18' W 001°42'0 0.0 300 5.4 8.0
2018-May-17 06:00N 58°18' W 001°42'0 0.0 290 5.4 8.0
2018-May-17 05:00N 58°18' W 001°42'0 0.0 290 5.4 7.8
2018-May-17 04:00N 58°18' W 001°42'0 0.0 290 10.8 7.7
2018-May-17 03:00N 58°18' W 001°42'0 0.0 290 5.4 7.9
2018-May-17 02:00N 58°18' W 001°42'0 0.0 300 10.8 7.9
2018-May-17 01:00N 58°18' W 001°42'0 0.0 330 10.8 8.1
2018-May-17 00:00N 58°18' W 001°42'0 0.0 350 10.8 8.2
2018-May-16 23:00N 58°18' W 001°42'0 0.0 330 10.8 8.4
2018-May-16 22:00N 58°18' W 001°42'0 0.0 330 10.8 8.6
2018-May-16 21:00N 58°18' W 001°42'0 0.0 310 10.8 8.9
2018-May-16 20:00N 58°18' W 001°42'0 0.0 320 10.8 9.1
2018-May-16 19:00N 58°18' W 001°42'0 0.0 330 10.8 9.4
2018-May-16 18:00N 58°18' W 001°42'0 0.0 330 10.8 9.7
2018-May-16 17:00N 58°18' W 001°42'0 0.0 350 10.8 9.9
2018-May-16 16:00N 58°18' W 001°42'0 0.0 010 10.8 10.1
2018-May-16 15:00N 58°18' W 001°42'0 0.0 360 10.8 9.6
2018-May-16 14:00N 58°18' W 001°42'0 0.0 320 10.8 9.4
2018-May-16 13:00N 58°18' W 001°42'0 0.0 320 10.8 9.5
2018-May-16 12:00N 58°18' W 001°42'0 0.0 330 10.8 9.1
2018-May-16 11:00N 58°18' W 001°42'0 0.0 320 10.8 9.2
2018-May-16 10:00N 58°18' W 001°42'0 0.0 300 10.8 8.9
2018-May-16 09:00N 58°18' W 001°42'0 0.0 310 10.8 8.7
2018-May-16 08:00N 58°18' W 001°42'0 0.0 320 10.8 8.4
2018-May-16 07:00N 58°18' W 001°42'0 0.0 320 10.8 8.3
2018-May-16 06:00N 58°18' W 001°42'0 0.0 350 10.8 8.3
2018-May-16 05:00N 58°18' W 001°42'0 0.0 340 10.8 8.0
2018-May-16 04:00N 58°18' W 001°42'0 0.0 330 10.8 8.1
2018-May-16 03:00N 58°18' W 001°42'0 0.0 310 10.8 8.2
2018-May-16 02:00N 58°18' W 001°42'0 0.0 290 10.8 8.2
2018-May-16 01:00N 58°18' W 001°42'0 0.0 280 10.8 8.3
2018-May-16 00:00N 58°18' W 001°42'0 0.0 280 10.8 8.4
2018-May-15 23:00N 58°18' W 001°42'0 0.0 280 10.8 8.7
2018-May-15 22:00N 58°18' W 001°42'0 0.0 280 10.8 9.0
2018-May-15 21:00N 58°18' W 001°42'0 0.0 330 10.8 9.4
2018-May-15 20:00N 58°18' W 001°42'0 0.0 310 10.8 9.5
2018-May-15 19:00N 58°18' W 001°42'0 0.0 320 10.8 9.5
2018-May-15 18:00N 58°18' W 001°42'0 0.0 320 10.8 10.3
2018-May-15 17:00N 58°18' W 001°42'0 0.0 220 10.8 10.7
2018-May-15 16:00N 58°18' W 001°42'0 0.0 180 10.8 10.3
2018-May-15 15:00N 58°18' W 001°42'0 0.0 170 10.8 10.5
2018-May-15 14:00N 58°18' W 001°42'0 0.0 160 10.8 10.8
2018-May-15 13:00N 58°18' W 001°42'0 0.0 170 10.8 10.7
2018-May-15 12:00N 58°18' W 001°42'0 0.0 170 10.8 10.4
2018-May-15 11:00N 58°18' W 001°42'0 0.0 170 10.8 10.3
2018-May-15 10:00N 58°18' W 001°42'0 0.0 160 10.8 10.5
2018-May-15 09:00N 58°18' W 001°42'0 0.0 150 10.8 12.8
2018-May-15 08:00N 58°18' W 001°42'0 0.0 180 10.8 10.0
2018-May-15 07:00N 58°18' W 001°42'0 0.0 200 10.8 10.3
2018-May-15 06:00N 58°18' W 001°42'0 0.0 200 10.8 10.0
2018-May-15 05:00N 58°18' W 001°42'0 0.0 190 10.8 9.9
2018-May-15 04:00N 58°18' W 001°42'0 0.0 180 10.8 9.6
2018-May-15 03:00N 58°18' W 001°42'0 0.0 170 10.8 9.5
2018-May-15 02:00N 58°18' W 001°42'0 0.0
2018-May-15 01:00N 58°18' W 001°42'0 0.0
2018-May-15 00:00N 58°18' W 001°42'0 0.0 180 10.8 9.5
2018-May-14 23:00N 58°18' W 001°42'0 0.0 160 10.8 9.6
2018-May-14 22:00N 58°18' W 001°42'0 0.0 160 10.8 9.7
2018-May-14 21:00N 58°18' W 001°42'0 0.0 150 10.8 9.8
2018-May-14 20:00N 58°18' W 001°42'0 0.0 140 10.8 10.0
2018-May-14 19:00N 58°18' W 001°42'0 0.0 140 10.8 10.4
2018-May-14 18:00N 58°18' W 001°42'0 0.0 140 10.8 10.5
2018-May-14 17:00N 58°18' W 001°42'0 0.0 140 10.8 10.7
2018-May-14 16:00N 58°18' W 001°42'0 0.0 140 10.8 12.4
2018-May-14 15:00N 58°18' W 001°42'0 0.0 140 10.8 12.5
2018-May-14 14:00N 58°18' W 001°42'0 0.0 120 10.8 13.6
2018-May-14 13:00N 58°18' W 001°42'0 0.0 120 10.8 11.9
2018-May-14 12:00N 58°18' W 001°42'0 0.0 120 10.8 11.6
2018-May-14 11:00N 58°18' W 001°42'0 0.0 140 10.8 13.5
2018-May-14 10:00N 58°18' W 001°42'0 0.0 140 10.8 11.9
2018-May-14 09:00N 58°18' W 001°42'0 0.0 160 10.8 11.6
2018-May-14 08:00N 58°18' W 001°42'0 0.0 190 10.8 10.7
2018-May-14 07:00N 58°18' W 001°42'0 0.0 250 10.8 11.0
2018-May-14 06:00N 58°18' W 001°42'0 0.0 230 10.8 11.3
2018-May-14 05:00N 58°18' W 001°42'0 0.0 230 10.8 9.0
2018-May-14 04:00N 58°18' W 001°42'0 0.0 280 10.8 8.2
2018-May-14 03:00N 58°18' W 001°42'0 0.0 300 10.8 7.8
2018-May-14 02:00N 58°18' W 001°42'0 0.0 290 10.8 7.8
2018-May-14 01:00N 58°18' W 001°42'0 0.0 270 10.8 8.0
2018-May-14 00:00N 58°18' W 001°42'0 0.0 270 10.8 8.1
2018-May-13 23:00N 58°18' W 001°42'0 0.0 250 10.8 8.4
2018-May-13 22:00N 58°18' W 001°42'0 0.0 230 10.8 8.9
2018-May-13 21:00N 58°18' W 001°42'0 0.0 230 10.8 9.0
2018-May-13 20:00N 58°18' W 001°42'0 0.0 300 10.8 8.7
2018-May-13 19:00N 58°18' W 001°42'0 0.0 290 10.8 8.8
2018-May-13 18:00N 58°18' W 001°42'0 0.0 290 10.8 8.8
2018-May-13 17:00N 58°18' W 001°42'0 0.0 250 5.4 9.1
2018-May-13 16:00N 58°18' W 001°42'0 0.0 280 2.2 9.1
2018-May-13 15:00N 58°18' W 001°42'0 0.0 170 1.1 9.5
2018-May-13 14:00N 58°18' W 001°42'0 0.0 190 2.2 9.8
2018-May-13 13:00N 58°18' W 001°42'0 0.0 150 5.4 10.2
2018-May-13 12:00N 58°18' W 001°42'0 0.0 130 5.4 10.5
2018-May-13 11:00N 58°18' W 001°42'0 0.0 130 5.4 10.4
2018-May-13 10:00N 58°18' W 001°42'0 0.0 150 5.4 9.9
2018-May-13 09:00N 58°18' W 001°42'0 0.0 110 5.4 9.7
2018-May-13 08:00N 58°18' W 001°42'0 0.0 100 5.4 9.8
2018-May-13 07:00N 58°18' W 001°42'0 0.0 100 5.4 9.2
2018-May-13 06:00N 58°18' W 001°42'0 0.0 110 5.4 9.2
2018-May-13 05:00N 58°18' W 001°42'0 0.0 120 5.4 9.0
2018-May-13 04:00N 58°18' W 001°42'0 0.0 130 2.2 9.2
2018-May-13 03:00N 58°18' W 001°42'0 0.0 140 2.2 9.3
2018-May-13 02:00N 58°18' W 001°42'0 0.0 140 2.2 9.2
2018-May-13 01:00N 58°18' W 001°42'0 0.0 120 2.2 9.3
2018-May-13 00:00N 58°18' W 001°42'0 0.0 110 2.2 9.3
2018-May-12 23:00N 58°18' W 001°42'0 0.0 110 2.2 9.2
2018-May-12 22:00N 58°18' W 001°42'0 0.0 110 2.2 9.2
2018-May-12 21:00N 58°18' W 001°42'0 0.0 110 2.2 9.2
2018-May-12 20:00N 58°18' W 001°42'0 0.0 110 2.2 9.1
2018-May-12 19:00N 58°18' W 001°42'0 0.0 100 2.2 9.1
2018-May-12 18:00N 58°18' W 001°42'0 0.0 100 2.2 9.1
2018-May-12 17:00N 58°18' W 001°42'0 0.0 100 2.2 9.1
2018-May-12 16:00N 58°18' W 001°42'0 0.0 110 2.2 9.4
2018-May-12 15:00N 58°18' W 001°42'0 0.0 120 2.2 9.6
2018-May-12 14:00N 58°18' W 001°42'0 0.0 120 2.2 9.4
2018-May-12 13:00N 58°18' W 001°42'0 0.0 130 2.2 9.1
2018-May-12 12:00N 58°18' W 001°42'0 0.0 140 2.2 9.0
2018-May-12 11:00N 58°18' W 001°42'0 0.0 140 2.2 9.0
2018-May-12 10:00N 58°18' W 001°42'0 0.0 150 2.2 9.0
2018-May-12 09:00N 58°18' W 001°42'0 0.0 150 2.2 9.1
2018-May-12 08:00N 58°18' W 001°42'0 0.0 150 2.2 9.1
2018-May-12 07:00N 58°18' W 001°42'0 0.0 140 5.4 9.0
2018-May-12 06:00N 58°18' W 001°42'0 0.0 150 5.4 9.0
2018-May-12 05:00N 58°18' W 001°42'0 0.0 150 2.2 9.0
2018-May-12 04:00N 58°18' W 001°42'0 0.0 150 5.4 9.0
2018-May-12 03:00N 58°18' W 001°42'0 0.0 150 5.4 9.1
2018-May-12 02:00N 58°18' W 001°42'0 0.0 150 5.4 9.1
2018-May-12 01:00N 58°18' W 001°42'0 0.0 150 5.4 9.1
2018-May-12 00:00N 58°18' W 001°42'0 0.0 160 5.4 9.2
2018-May-11 23:00N 58°18' W 001°42'0 0.0 160 5.4 9.3
2018-May-11 22:00N 58°18' W 001°42'0 0.0 160 5.4 9.5
2018-May-11 21:00N 58°18' W 001°42'0 0.0 150 5.4 9.6
2018-May-11 20:00N 58°18' W 001°42'0 0.0 150 5.4 9.7
2018-May-11 19:00N 58°18' W 001°42'0 0.0 150 5.4 9.7
2018-May-11 18:00N 58°18' W 001°42'0 0.0 150 5.4 9.8
2018-May-11 17:00N 58°18' W 001°42'0 0.0 150 5.4 10.0
2018-May-11 16:00N 58°18' W 001°42'0 0.0 140 5.4 10.1
2018-May-11 15:00N 58°18' W 001°42'0 0.0 150 5.4 10.0
2018-May-11 14:00N 58°18' W 001°42'0 0.0 130 5.4 10.2
2018-May-11 13:00N 58°18' W 001°42'0 0.0 140 5.4 10.1
2018-May-11 12:00N 58°18' W 001°42'0 0.0 120 10.8 10.1
2018-May-11 11:00N 58°18' W 001°42'0 0.0 140 10.8 10.1
2018-May-11 10:00N 58°18' W 001°42'0 0.0 140 10.8 9.8
2018-May-11 09:00N 58°18' W 001°42'0 0.0 150 10.8 9.7
2018-May-11 08:00N 58°18' W 001°42'0 0.0 150 10.8 9.5
2018-May-11 07:00N 58°18' W 001°42'0 0.0 150 10.8 9.2
2018-May-11 06:00N 58°18' W 001°42'0 0.0 160 10.8 9.4
2018-May-11 05:00N 58°18' W 001°42'0 0.0 150 10.8 8.9
2018-May-11 04:00N 58°18' W 001°42'0 0.0 160 10.8 8.5
2018-May-11 03:00N 58°18' W 001°42'0 0.0 140 5.4 8.9
2018-May-11 02:00N 58°18' W 001°42'0 0.0 130 10.8 9.0
2018-May-11 01:00N 58°18' W 001°42'0 0.0 140 10.8 9.2
2018-May-11 00:00N 58°18' W 001°42'0 0.0 120 10.8 9.4
2018-May-10 23:00N 58°18' W 001°42'0 0.0 150 10.8 9.4
2018-May-10 22:00N 58°18' W 001°42'0 0.0 170 10.8 9.4
2018-May-10 21:00N 58°18' W 001°42'0 0.0 170 10.8 9.6
2018-May-10 20:00N 58°18' W 001°42'0 0.0 180 10.8 9.7
2018-May-10 19:00N 58°18' W 001°42'0 0.0 210 10.8 10.9
2018-May-10 18:00N 58°18' W 001°42'0 0.0 220 10.8 12.1
2018-May-10 17:00N 58°18' W 001°42'0 0.0 230 10.8 10.6
2018-May-10 16:00N 58°18' W 001°42'0 0.0 240 10.8 11.5
2018-May-10 15:00N 58°18' W 001°42'0 0.0 270 10.8 10.7
2018-May-10 14:00N 58°18' W 001°42'0 0.0 260 10.8 10.6
2018-May-10 13:00N 58°18' W 001°42'0 0.0 260 10.8 10.2
2018-May-10 12:00N 58°18' W 001°42'0 0.0 250 10.8 10.2
2018-May-10 11:00N 58°18' W 001°42'0 0.0 240 10.8 10.0
2018-May-10 10:00N 58°18' W 001°42'0 0.0 220 10.8 9.7
2018-May-10 09:00N 58°18' W 001°42'   240 10.8 9.0
Track history (hours):
 
Tides and Currents Weather Stations Pressure Air Temp Water Temp Dewpoint Dewpoint Depression Visibility Wind Speed Wind Dir Waves Ship Positions

Callsign MVGF4 (name unknown)

Last reported at 2018-May-20 09:00 UTC. Time now 2018-May-20 10:22 UTC.
Position N 58°18' W 001°42'.

Wind from 160

Air temperature 10.5 ° C
Visibility: greater than 5.4 NM

Date/timePositionNaut miles runAvg speedWind from/ knotsBaromVisibWave heightAir tempDewpointWater temp
2018-May-20 09:00N 58°18' W 001°42'0 0.0 160 5.4 10.5
2018-May-20 08:00N 58°18' W 001°42'0 0.0 190 5.4 10.4
2018-May-20 07:00N 58°18' W 001°42'0 0.0 190 5.4 10.4
2018-May-20 06:00N 58°18' W 001°42'0 0.0 170 10.8 10.6
2018-May-20 05:00N 58°18' W 001°42'0 0.0 180 10.8 10.4
2018-May-20 04:00N 58°18' W 001°42'0 0.0 180 10.8 10.7
2018-May-20 03:00N 58°18' W 001°42'0 0.0 180 10.8 10.8
2018-May-20 02:00N 58°18' W 001°42'0 0.0 180 10.8 11.0
2018-May-20 01:00N 58°18' W 001°42'0 0.0 180 10.8 10.8
2018-May-20 00:00N 58°18' W 001°42'0 0.0 180 5.4 10.3
2018-May-19 23:00N 58°18' W 001°42'0 0.0 180 5.4 10.0
2018-May-19 22:00N 58°18' W 001°42'0 0.0 170 5.4 9.9
2018-May-19 21:00N 58°18' W 001°42'0 0.0 170 5.4 10.0
2018-May-19 20:00N 58°18' W 001°42'0 0.0 170 5.4 10.2
2018-May-19 19:00N 58°18' W 001°42'0 0.0 160 5.4 10.4
2018-May-19 18:00N 58°18' W 001°42'0 0.0 170 5.4 10.6
2018-May-19 17:00N 58°18' W 001°42'0 0.0 160 5.4 10.8
2018-May-19 16:00N 58°18' W 001°42'0 0.0 150 5.4 10.6
2018-May-19 15:00N 58°18' W 001°42'0 0.0 150 5.4 10.8
2018-May-19 14:00N 58°18' W 001°42'0 0.0 150 5.4 11.1
2018-May-19 13:00N 58°18' W 001°42'0 0.0 150 10.8 11.4
2018-May-19 12:00N 58°18' W 001°42'0 0.0 150 10.8 11.0
2018-May-19 11:00N 58°18' W 001°42'0 0.0 160 10.8 10.7
2018-May-19 10:00N 58°18' W 001°42'0 0.0 150 10.8 10.3
2018-May-19 09:00N 58°18' W 001°42'0 0.0 170 10.8 12.5
2018-May-19 08:00N 58°18' W 001°42'0 0.0
2018-May-19 07:00N 58°18' W 001°42'0 0.0
2018-May-19 06:00N 58°18' W 001°42'0 0.0 170 10.8 10.4
2018-May-19 05:00N 58°18' W 001°42'0 0.0 170 10.8 9.8
2018-May-19 04:00N 58°18' W 001°42'0 0.0 170 10.8 9.3
2018-May-19 03:00N 58°18' W 001°42'0 0.0 180 10.8 9.2
2018-May-19 02:00N 58°18' W 001°42'0 0.0 180 10.8 9.3
2018-May-19 01:00N 58°18' W 001°42'0 0.0 180 10.8 9.5
2018-May-19 00:00N 58°18' W 001°42'0 0.0 190 10.8 9.8
2018-May-18 23:00N 58°18' W 001°42'0 0.0 180 10.8 9.9
2018-May-18 22:00N 58°18' W 001°42'0 0.0 180 10.8 9.9
2018-May-18 21:00N 58°18' W 001°42'0 0.0 170 10.8 10.3
2018-May-18 20:00N 58°18' W 001°42'0 0.0 170 10.8 10.5
2018-May-18 19:00N 58°18' W 001°42'0 0.0 170 10.8 10.7
2018-May-18 18:00N 58°18' W 001°42'0 0.0 160 10.8 11.4
2018-May-18 17:00N 58°18' W 001°42'0 0.0 160 10.8 11.6
2018-May-18 16:00N 58°18' W 001°42'0 0.0 170 10.8 11.7
2018-May-18 15:00N 58°18' W 001°42'0 0.0 170 10.8 11.7
2018-May-18 14:00N 58°18' W 001°42'0 0.0 170 10.8 11.8
2018-May-18 13:00N 58°18' W 001°42'0 0.0 160 10.8 12.7
2018-May-18 12:00N 58°18' W 001°42'0 0.0 180 10.8 12.3
2018-May-18 11:00N 58°18' W 001°42'0 0.0 170 10.8 11.2
2018-May-18 10:00N 58°18' W 001°42'0 0.0 170 10.8 11.5
2018-May-18 09:00N 58°18' W 001°42'0 0.0 170 10.8 11.1
2018-May-18 08:00N 58°18' W 001°42'0 0.0 170 10.8 11.0
2018-May-18 07:00N 58°18' W 001°42'0 0.0 160 10.8 10.6
2018-May-18 06:00N 58°18' W 001°42'0 0.0 160 10.8 9.4
2018-May-18 05:00N 58°18' W 001°42'0 0.0 150 10.8 8.8
2018-May-18 04:00N 58°18' W 001°42'0 0.0 150 10.8 8.2
2018-May-18 03:00N 58°18' W 001°42'0 0.0 190 10.8 8.1
2018-May-18 02:00N 58°18' W 001°42'0 0.0 180 5.4 8.3
2018-May-18 01:00N 58°18' W 001°42'0 0.0 190 5.4 8.6
2018-May-18 00:00N 58°18' W 001°42'0 0.0 170 5.4 8.7
2018-May-17 23:00N 58°18' W 001°42'0 0.0 160 5.4 8.6
2018-May-17 22:00N 58°18' W 001°42'0 0.0 100 10.8 8.7
2018-May-17 21:00N 58°18' W 001°42'0 0.0 110 10.8 9.1
2018-May-17 20:00N 58°18' W 001°42'0 0.0 080 5.4 9.8
2018-May-17 19:00N 58°18' W 001°42'0 0.0 030 5.4 10.3
2018-May-17 18:00N 58°18' W 001°42'0 0.0 020 5.4 10.3
2018-May-17 17:00N 58°18' W 001°42'0 0.0 010 5.4 10.7
2018-May-17 16:00N 58°18' W 001°42'0 0.0 360 5.4 10.7
2018-May-17 15:00N 58°18' W 001°42'0 0.0 330 5.4 9.8
2018-May-17 14:00N 58°18' W 001°42'0 0.0 320 5.4 9.5
2018-May-17 13:00N 58°18' W 001°42'0 0.0 320 10.8 9.4
2018-May-17 12:00N 58°18' W 001°42'0 0.0 330 5.4 9.2
2018-May-17 11:00N 58°18' W 001°42'0 0.0 320 5.4 9.2
2018-May-17 10:00N 58°18' W 001°42'0 0.0 300 5.4 8.9
2018-May-17 09:00N 58°18' W 001°42'0 0.0 310 5.4 8.6
2018-May-17 08:00N 58°18' W 001°42'0 0.0 300 5.4 8.3
2018-May-17 07:00N 58°18' W 001°42'0 0.0 300 5.4 8.0
2018-May-17 06:00N 58°18' W 001°42'0 0.0 290 5.4 8.0
2018-May-17 05:00N 58°18' W 001°42'0 0.0 290 5.4 7.8
2018-May-17 04:00N 58°18' W 001°42'0 0.0 290 10.8 7.7
2018-May-17 03:00N 58°18' W 001°42'0 0.0 290 5.4 7.9
2018-May-17 02:00N 58°18' W 001°42'0 0.0 300 10.8 7.9
2018-May-17 01:00N 58°18' W 001°42'0 0.0 330 10.8 8.1
2018-May-17 00:00N 58°18' W 001°42'0 0.0 350 10.8 8.2
2018-May-16 23:00N 58°18' W 001°42'0 0.0 330 10.8 8.4
2018-May-16 22:00N 58°18' W 001°42'0 0.0 330 10.8 8.6
2018-May-16 21:00N 58°18' W 001°42'0 0.0 310 10.8 8.9
2018-May-16 20:00N 58°18' W 001°42'0 0.0 320 10.8 9.1
2018-May-16 19:00N 58°18' W 001°42'0 0.0 330 10.8 9.4
2018-May-16 18:00N 58°18' W 001°42'0 0.0 330 10.8 9.7
2018-May-16 17:00N 58°18' W 001°42'0 0.0 350 10.8 9.9
2018-May-16 16:00N 58°18' W 001°42'0 0.0 010 10.8 10.1
2018-May-16 15:00N 58°18' W 001°42'0 0.0 360 10.8 9.6
2018-May-16 14:00N 58°18' W 001°42'0 0.0 320 10.8 9.4
2018-May-16 13:00N 58°18' W 001°42'0 0.0 320 10.8 9.5
2018-May-16 12:00N 58°18' W 001°42'0 0.0 330 10.8 9.1
2018-May-16 11:00N 58°18' W 001°42'0 0.0 320 10.8 9.2
2018-May-16 10:00N 58°18' W 001°42'0 0.0 300 10.8 8.9
2018-May-16 09:00N 58°18' W 001°42'0 0.0 310 10.8 8.7
2018-May-16 08:00N 58°18' W 001°42'0 0.0 320 10.8 8.4
2018-May-16 07:00N 58°18' W 001°42'0 0.0 320 10.8 8.3
2018-May-16 06:00N 58°18' W 001°42'0 0.0 350 10.8 8.3
2018-May-16 05:00N 58°18' W 001°42'0 0.0 340 10.8 8.0
2018-May-16 04:00N 58°18' W 001°42'0 0.0 330 10.8 8.1
2018-May-16 03:00N 58°18' W 001°42'0 0.0 310 10.8 8.2
2018-May-16 02:00N 58°18' W 001°42'0 0.0 290 10.8 8.2
2018-May-16 01:00N 58°18' W 001°42'0 0.0 280 10.8 8.3
2018-May-16 00:00N 58°18' W 001°42'0 0.0 280 10.8 8.4
2018-May-15 23:00N 58°18' W 001°42'0 0.0 280 10.8 8.7
2018-May-15 22:00N 58°18' W 001°42'0 0.0 280 10.8 9.0
2018-May-15 21:00N 58°18' W 001°42'0 0.0 330 10.8 9.4
2018-May-15 20:00N 58°18' W 001°42'0 0.0 310 10.8 9.5
2018-May-15 19:00N 58°18' W 001°42'0 0.0 320 10.8 9.5
2018-May-15 18:00N 58°18' W 001°42'0 0.0 320 10.8 10.3
2018-May-15 17:00N 58°18' W 001°42'0 0.0 220 10.8 10.7
2018-May-15 16:00N 58°18' W 001°42'0 0.0 180 10.8 10.3
2018-May-15 15:00N 58°18' W 001°42'0 0.0 170 10.8 10.5
2018-May-15 14:00N 58°18' W 001°42'0 0.0 160 10.8 10.8
2018-May-15 13:00N 58°18' W 001°42'0 0.0 170 10.8 10.7
2018-May-15 12:00N 58°18' W 001°42'0 0.0 170 10.8 10.4
2018-May-15 11:00N 58°18' W 001°42'0 0.0 170 10.8 10.3
2018-May-15 10:00N 58°18' W 001°42'0 0.0 160 10.8 10.5
2018-May-15 09:00N 58°18' W 001°42'0 0.0 150 10.8 12.8
2018-May-15 08:00N 58°18' W 001°42'0 0.0 180 10.8 10.0
2018-May-15 07:00N 58°18' W 001°42'0 0.0 200 10.8 10.3
2018-May-15 06:00N 58°18' W 001°42'0 0.0 200 10.8 10.0
2018-May-15 05:00N 58°18' W 001°42'0 0.0 190 10.8 9.9
2018-May-15 04:00N 58°18' W 001°42'0 0.0 180 10.8 9.6
2018-May-15 03:00N 58°18' W 001°42'0 0.0 170 10.8 9.5
2018-May-15 02:00N 58°18' W 001°42'0 0.0
2018-May-15 01:00N 58°18' W 001°42'0 0.0
2018-May-15 00:00N 58°18' W 001°42'0 0.0 180 10.8 9.5
2018-May-14 23:00N 58°18' W 001°42'0 0.0 160 10.8 9.6
2018-May-14 22:00N 58°18' W 001°42'0 0.0 160 10.8 9.7
2018-May-14 21:00N 58°18' W 001°42'0 0.0 150 10.8 9.8
2018-May-14 20:00N 58°18' W 001°42'0 0.0 140 10.8 10.0
2018-May-14 19:00N 58°18' W 001°42'0 0.0 140 10.8 10.4
2018-May-14 18:00N 58°18' W 001°42'0 0.0 140 10.8 10.5
2018-May-14 17:00N 58°18' W 001°42'0 0.0 140 10.8 10.7
2018-May-14 16:00N 58°18' W 001°42'0 0.0 140 10.8 12.4
2018-May-14 15:00N 58°18' W 001°42'0 0.0 140 10.8 12.5
2018-May-14 14:00N 58°18' W 001°42'0 0.0 120 10.8 13.6
2018-May-14 13:00N 58°18' W 001°42'0 0.0 120 10.8 11.9
2018-May-14 12:00N 58°18' W 001°42'0 0.0 120 10.8 11.6
2018-May-14 11:00N 58°18' W 001°42'0 0.0 140 10.8 13.5
2018-May-14 10:00N 58°18' W 001°42'0 0.0 140 10.8 11.9
2018-May-14 09:00N 58°18' W 001°42'0 0.0 160 10.8 11.6
2018-May-14 08:00N 58°18' W 001°42'0 0.0 190 10.8 10.7
2018-May-14 07:00N 58°18' W 001°42'0 0.0 250 10.8 11.0
2018-May-14 06:00N 58°18' W 001°42'0 0.0 230 10.8 11.3
2018-May-14 05:00N 58°18' W 001°42'0 0.0 230 10.8 9.0
2018-May-14 04:00N 58°18' W 001°42'0 0.0 280 10.8 8.2
2018-May-14 03:00N 58°18' W 001°42'0 0.0 300 10.8 7.8
2018-May-14 02:00N 58°18' W 001°42'0 0.0 290 10.8 7.8
2018-May-14 01:00N 58°18' W 001°42'0 0.0 270 10.8 8.0
2018-May-14 00:00N 58°18' W 001°42'0 0.0 270 10.8 8.1
2018-May-13 23:00N 58°18' W 001°42'0 0.0 250 10.8 8.4
2018-May-13 22:00N 58°18' W 001°42'0 0.0 230 10.8 8.9
2018-May-13 21:00N 58°18' W 001°42'0 0.0 230 10.8 9.0
2018-May-13 20:00N 58°18' W 001°42'0 0.0 300 10.8 8.7
2018-May-13 19:00N 58°18' W 001°42'0 0.0 290 10.8 8.8
2018-May-13 18:00N 58°18' W 001°42'0 0.0 290 10.8 8.8
2018-May-13 17:00N 58°18' W 001°42'0 0.0 250 5.4 9.1
2018-May-13 16:00N 58°18' W 001°42'0 0.0 280 2.2 9.1
2018-May-13 15:00N 58°18' W 001°42'0 0.0 170 1.1 9.5
2018-May-13 14:00N 58°18' W 001°42'0 0.0 190 2.2 9.8
2018-May-13 13:00N 58°18' W 001°42'0 0.0 150 5.4 10.2
2018-May-13 12:00N 58°18' W 001°42'0 0.0 130 5.4 10.5
2018-May-13 11:00N 58°18' W 001°42'0 0.0 130 5.4 10.4
2018-May-13 10:00N 58°18' W 001°42'0 0.0 150 5.4 9.9
2018-May-13 09:00N 58°18' W 001°42'0 0.0 110 5.4 9.7
2018-May-13 08:00N 58°18' W 001°42'0 0.0 100 5.4 9.8
2018-May-13 07:00N 58°18' W 001°42'0 0.0 100 5.4 9.2
2018-May-13 06:00N 58°18' W 001°42'0 0.0 110 5.4 9.2
2018-May-13 05:00N 58°18' W 001°42'0 0.0 120 5.4 9.0
2018-May-13 04:00N 58°18' W 001°42'0 0.0 130 2.2 9.2
2018-May-13 03:00N 58°18' W 001°42'0 0.0 140 2.2 9.3
2018-May-13 02:00N 58°18' W 001°42'0 0.0 140 2.2 9.2
2018-May-13 01:00N 58°18' W 001°42'0 0.0 120 2.2 9.3
2018-May-13 00:00N 58°18' W 001°42'0 0.0 110 2.2 9.3
2018-May-12 23:00N 58°18' W 001°42'0 0.0 110 2.2 9.2
2018-May-12 22:00N 58°18' W 001°42'0 0.0 110 2.2 9.2
2018-May-12 21:00N 58°18' W 001°42'0 0.0 110 2.2 9.2
2018-May-12 20:00N 58°18' W 001°42'0 0.0 110 2.2 9.1
2018-May-12 19:00N 58°18' W 001°42'0 0.0 100 2.2 9.1
2018-May-12 18:00N 58°18' W 001°42'0 0.0 100 2.2 9.1
2018-May-12 17:00N 58°18' W 001°42'0 0.0 100 2.2 9.1
2018-May-12 16:00N 58°18' W 001°42'0 0.0 110 2.2 9.4
2018-May-12 15:00N 58°18' W 001°42'0 0.0 120 2.2 9.6
2018-May-12 14:00N 58°18' W 001°42'0 0.0 120 2.2 9.4
2018-May-12 13:00N 58°18' W 001°42'0 0.0 130 2.2 9.1
2018-May-12 12:00N 58°18' W 001°42'0 0.0 140 2.2 9.0
2018-May-12 11:00N 58°18' W 001°42'0 0.0 140 2.2 9.0
2018-May-12 10:00N 58°18' W 001°42'0 0.0 150 2.2 9.0
2018-May-12 09:00N 58°18' W 001°42'0 0.0 150 2.2 9.1
2018-May-12 08:00N 58°18' W 001°42'0 0.0 150 2.2 9.1
2018-May-12 07:00N 58°18' W 001°42'0 0.0 140 5.4 9.0
2018-May-12 06:00N 58°18' W 001°42'0 0.0 150 5.4 9.0
2018-May-12 05:00N 58°18' W 001°42'0 0.0 150 2.2 9.0
2018-May-12 04:00N 58°18' W 001°42'0 0.0 150 5.4 9.0
2018-May-12 03:00N 58°18' W 001°42'0 0.0 150 5.4 9.1
2018-May-12 02:00N 58°18' W 001°42'0 0.0 150 5.4 9.1
2018-May-12 01:00N 58°18' W 001°42'0 0.0 150 5.4 9.1
2018-May-12 00:00N 58°18' W 001°42'0 0.0 160 5.4 9.2
2018-May-11 23:00N 58°18' W 001°42'0 0.0 160 5.4 9.3
2018-May-11 22:00N 58°18' W 001°42'0 0.0 160 5.4 9.5
2018-May-11 21:00N 58°18' W 001°42'0 0.0 150 5.4 9.6
2018-May-11 20:00N 58°18' W 001°42'0 0.0 150 5.4 9.7
2018-May-11 19:00N 58°18' W 001°42'0 0.0 150 5.4 9.7
2018-May-11 18:00N 58°18' W 001°42'0 0.0 150 5.4 9.8
2018-May-11 17:00N 58°18' W 001°42'0 0.0 150 5.4 10.0
2018-May-11 16:00N 58°18' W 001°42'0 0.0 140 5.4 10.1
2018-May-11 15:00N 58°18' W 001°42'0 0.0 150 5.4 10.0
2018-May-11 14:00N 58°18' W 001°42'0 0.0 130 5.4 10.2
2018-May-11 13:00N 58°18' W 001°42'0 0.0 140 5.4 10.1
2018-May-11 12:00N 58°18' W 001°42'0 0.0 120 10.8 10.1
2018-May-11 11:00N 58°18' W 001°42'0 0.0 140 10.8 10.1
2018-May-11 10:00N 58°18' W 001°42'0 0.0 140 10.8 9.8
2018-May-11 09:00N 58°18' W 001°42'0 0.0 150 10.8 9.7
2018-May-11 08:00N 58°18' W 001°42'0 0.0 150 10.8 9.5
2018-May-11 07:00N 58°18' W 001°42'0 0.0 150 10.8 9.2
2018-May-11 06:00N 58°18' W 001°42'0 0.0 160 10.8 9.4
2018-May-11 05:00N 58°18' W 001°42'0 0.0 150 10.8 8.9
2018-May-11 04:00N 58°18' W 001°42'0 0.0 160 10.8 8.5
2018-May-11 03:00N 58°18' W 001°42'0 0.0 140 5.4 8.9
2018-May-11 02:00N 58°18' W 001°42'0 0.0 130 10.8 9.0
2018-May-11 01:00N 58°18' W 001°42'0 0.0 140 10.8 9.2
2018-May-11 00:00N 58°18' W 001°42'0 0.0 120 10.8 9.4
2018-May-10 23:00N 58°18' W 001°42'0 0.0 150 10.8 9.4
2018-May-10 22:00N 58°18' W 001°42'0 0.0 170 10.8 9.4
2018-May-10 21:00N 58°18' W 001°42'0 0.0 170 10.8 9.6
2018-May-10 20:00N 58°18' W 001°42'0 0.0 180 10.8 9.7
2018-May-10 19:00N 58°18' W 001°42'0 0.0 210 10.8 10.9
2018-May-10 18:00N 58°18' W 001°42'0 0.0 220 10.8 12.1
2018-May-10 17:00N 58°18' W 001°42'0 0.0 230 10.8 10.6
2018-May-10 16:00N 58°18' W 001°42'0 0.0 240 10.8 11.5
2018-May-10 15:00N 58°18' W 001°42'0 0.0 270 10.8 10.7
2018-May-10 14:00N 58°18' W 001°42'0 0.0 260 10.8 10.6
2018-May-10 13:00N 58°18' W 001°42'0 0.0 260 10.8 10.2
2018-May-10 12:00N 58°18' W 001°42'0 0.0 250 10.8 10.2
2018-May-10 11:00N 58°18' W 001°42'0 0.0 240 10.8 10.0
2018-May-10 10:00N 58°18' W 001°42'0 0.0 220 10.8 9.7
2018-May-10 09:00N 58°18' W 001°42'   240 10.8 9.0

Dump ship's entire track history